Taoxian Airport
ZYTX : rendu visible

Aérodrome :











RETROUVEZ-NOUS SUR...

 
LOGIN :

S'inscrire | Disclaimer

   EN    FR    IT 

 









Légende :    VFR   VFR Marginal   IFR   IFR Intensif   IFR Très Intensif
Visi : 
Plafond : 
>= 8 km
>= 3000ft
5 à 8 km
1000 à 3000 ft
1500m à 5 km
500 à 1000 ft
800 à 1500m
200 à 500 ft
< 800m
< 200 ft
Symboles :   Orages  Brouillard  Fortes neiges  Fortes précipitations  Vent > 20 kt






- Altitude de l'aérodrome : 198 ft
- Code IATA : SHE


ZYTX - Taoxian

DERNIER METAR :
  • 272230Z 05003MPS 3000 FU NSC M06/M10 Q1024 NOSIG

METARs EXPIRÉS :
  • 272200Z 07002MPS 3000 FU NSC M06/M11 Q1024 BECMG TL2330 2500
  • 272130Z 07002MPS 4000 FU NSC M06/M10 Q1023 NOSIG
  • 272100Z 04002MPS 5000 FU NSC M05/M10 Q1024 NOSIG
  • 272030Z 08002MPS 5000 FU NSC M05/M09 Q1024 NOSIG
  • 272000Z 07001MPS 5000 FU NSC M05/M10 Q1024 NOSIG

TAF TAF ZYTX
Valide du 27 à 18h jusqu'au 28 à 18h UTC


271313Z 2718/2818 03004MPS 4000 FU NSC TXM01/2806Z TNM09/2722Z
TEMPO 2721/2802 2000



MET'MAP, la Météo Aéronautique d'un coup d'oeil ! - Copyright ORBIFLY Décembre 2007 - Disclaimer

ORBIFLY MET'MAP TEAM :

Programmation & Développement : Alexandra Zaïnal
Sur une idée originale de : Baudouin d'Aumeries
Assistance à la programmation : Marc-Olivier Méhu
Soutien technique & logistique : Manuel Goepfert

Contact : metmap@orbifly.com




SOURCES & CREDITS :

   NOAA       Earth
Advisory